createdAt,value
2018-12-03T00:01:47.631Z,86.00
2018-12-03T00:04:19.191Z,86.00
2018-12-03T00:06:47.883Z,86.10
2018-12-03T00:09:16.516Z,86.00
2018-12-03T00:11:45.075Z,86.20
2018-12-03T00:14:13.591Z,86.30
2018-12-03T00:16:42.287Z,86.50
2018-12-03T00:19:10.780Z,86.60
2018-12-03T00:21:39.478Z,86.60
2018-12-03T00:24:08.167Z,86.70
2018-12-03T00:26:36.770Z,86.80
2018-12-03T00:29:05.838Z,86.90
2018-12-03T00:31:34.456Z,87.00
2018-12-03T00:34:03.127Z,86.90
2018-12-03T00:36:31.764Z,86.90
2018-12-03T00:39:00.266Z,86.90
2018-12-03T00:41:28.714Z,86.80
2018-12-03T00:43:57.312Z,86.80
2018-12-03T00:46:26.033Z,86.50
2018-12-03T00:48:54.633Z,86.50
2018-12-03T00:51:23.313Z,86.60
2018-12-03T00:53:51.935Z,86.70
2018-12-03T00:56:20.464Z,86.60
2018-12-03T00:58:48.881Z,86.60
2018-12-03T01:01:17.447Z,86.50
2018-12-03T01:03:45.903Z,86.40
2018-12-03T01:06:14.526Z,86.40
2018-12-03T01:08:43.085Z,86.50
2018-12-03T01:11:11.577Z,86.50
2018-12-03T01:13:40.113Z,86.60
2018-12-03T01:16:08.671Z,86.60
2018-12-03T01:18:37.192Z,86.60
2018-12-03T01:21:06.096Z,86.60
2018-12-03T01:23:34.749Z,86.60
2018-12-03T01:26:03.263Z,86.40
2018-12-03T01:28:31.890Z,86.60
2018-12-03T01:31:00.819Z,86.60
2018-12-03T01:33:29.303Z,86.60
2018-12-03T01:35:57.965Z,86.60
2018-12-03T01:38:26.458Z,86.60
2018-12-03T01:40:54.995Z,86.60
2018-12-03T01:43:23.428Z,86.50
2018-12-03T01:45:52.166Z,86.50
2018-12-03T01:48:20.763Z,86.50
2018-12-03T01:50:49.337Z,86.60
2018-12-03T01:53:18.039Z,87.20
2018-12-03T01:55:46.485Z,86.50
2018-12-03T01:58:14.955Z,86.50
2018-12-03T02:00:43.475Z,86.50
2018-12-03T02:03:11.970Z,86.50
2018-12-03T02:05:40.477Z,86.40
2018-12-03T02:08:09.003Z,86.30
2018-12-03T02:10:37.584Z,86.30
2018-12-03T02:13:06.239Z,86.20
2018-12-03T02:15:34.968Z,86.30
2018-12-03T02:18:03.462Z,86.30
2018-12-03T02:20:32.071Z,86.30
2018-12-03T02:23:00.729Z,86.30
2018-12-03T02:25:29.318Z,86.30
2018-12-03T02:27:57.805Z,86.30
2018-12-03T02:30:26.331Z,86.30
2018-12-03T02:32:54.847Z,86.30
2018-12-03T02:35:23.452Z,86.30
2018-12-03T02:37:51.982Z,86.30
2018-12-03T02:40:20.594Z,86.30
2018-12-03T02:42:49.081Z,86.40
2018-12-03T02:45:17.646Z,86.50
2018-12-03T02:47:46.075Z,86.50
2018-12-03T02:50:14.999Z,86.50
2018-12-03T02:52:43.519Z,86.60
2018-12-03T02:55:12.795Z,86.60
2018-12-03T02:57:41.321Z,86.60
2018-12-03T03:00:13.293Z,86.60
2018-12-03T03:02:42.368Z,86.60
2018-12-03T03:05:12.332Z,86.50
2018-12-03T03:07:41.071Z,86.50
2018-12-03T03:10:14.566Z,86.40
2018-12-03T03:12:43.162Z,86.30
2018-12-03T03:15:13.040Z,86.20
2018-12-03T03:17:41.540Z,86.10
2018-12-03T03:20:12.819Z,86.10
2018-12-03T03:22:41.335Z,86.00
2018-12-03T03:25:10.706Z,86.00
2018-12-03T03:27:39.325Z,86.10
2018-12-03T03:30:10.003Z,86.00
2018-12-03T03:32:38.508Z,85.80
2018-12-03T03:35:08.387Z,85.70
2018-12-03T03:37:36.873Z,85.70
2018-12-03T03:40:07.699Z,85.70
2018-12-03T03:42:36.366Z,85.70
2018-12-03T03:45:07.456Z,86.00
2018-12-03T03:47:36.034Z,86.20
2018-12-03T03:50:05.344Z,86.30
2018-12-03T03:52:33.838Z,86.50
2018-12-03T03:55:02.347Z,86.70
2018-12-03T03:57:30.912Z,87.50
2018-12-03T03:59:59.382Z,87.90
2018-12-03T04:02:27.857Z,88.10
2018-12-03T04:04:56.417Z,88.60
2018-12-03T04:07:24.997Z,88.90
2018-12-03T04:09:53.506Z,89.20
2018-12-03T04:12:22.044Z,89.40
2018-12-03T04:14:50.496Z,89.60
2018-12-03T04:17:18.972Z,89.70
2018-12-03T04:19:47.483Z,89.80
2018-12-03T04:22:16.286Z,89.50
2018-12-03T04:24:44.747Z,89.30
2018-12-03T04:27:13.363Z,88.90
2018-12-03T04:29:41.867Z,87.40
2018-12-03T04:32:10.350Z,87.50
2018-12-03T04:34:39.163Z,88.60
2018-12-03T04:37:07.595Z,89.60
2018-12-03T04:39:36.058Z,90.00
2018-12-03T04:42:05.161Z,90.00
2018-12-03T04:44:33.869Z,90.00
2018-12-03T04:47:02.436Z,90.10
2018-12-03T04:49:30.928Z,90.10
2018-12-03T04:51:59.481Z,90.10
2018-12-03T04:54:27.935Z,90.10
2018-12-03T04:56:56.468Z,90.10
2018-12-03T04:59:24.999Z,90.10
2018-12-03T05:01:53.470Z,90.10
2018-12-03T05:04:22.049Z,90.00
2018-12-03T05:06:51.634Z,90.00
2018-12-03T05:09:19.418Z,89.90
2018-12-03T05:11:47.949Z,90.20
2018-12-03T05:14:16.536Z,89.60
2018-12-03T05:16:45.040Z,89.30
2018-12-03T05:19:13.596Z,89.50
2018-12-03T05:21:42.087Z,89.80
2018-12-03T05:24:10.607Z,89.90
2018-12-03T05:26:39.101Z,89.70
2018-12-03T05:29:07.708Z,90.00
2018-12-03T05:31:36.361Z,90.00
2018-12-03T05:34:05.886Z,90.00
2018-12-03T05:36:34.379Z,90.00
2018-12-03T05:39:03.168Z,90.10
2018-12-03T05:41:31.721Z,90.30
2018-12-03T05:44:00.240Z,90.40
2018-12-03T05:46:28.733Z,90.40
2018-12-03T05:48:57.227Z,90.50
2018-12-03T05:51:25.727Z,90.40
2018-12-03T05:53:54.161Z,90.40
2018-12-03T05:56:22.772Z,90.40
2018-12-03T05:58:51.479Z,90.40
2018-12-03T06:01:20.132Z,90.30
2018-12-03T06:03:49.137Z,90.40
2018-12-03T06:06:17.653Z,90.40
2018-12-03T06:08:46.211Z,90.40
2018-12-03T06:11:14.839Z,90.30
2018-12-03T06:13:43.339Z,90.20
2018-12-03T06:16:11.940Z,90.10
2018-12-03T06:18:40.461Z,90.20
2018-12-03T06:21:08.906Z,90.20
2018-12-03T06:23:37.484Z,90.20
2018-12-03T06:26:06.423Z,90.20
2018-12-03T06:28:34.880Z,90.10
2018-12-03T06:31:03.465Z,89.20
2018-12-03T06:33:31.992Z,89.10
2018-12-03T06:36:00.507Z,89.20
2018-12-03T06:38:28.978Z,89.30
2018-12-03T06:40:57.615Z,90.00
2018-12-03T06:43:26.198Z,89.50
2018-12-03T06:45:54.669Z,89.70
2018-12-03T06:48:24.277Z,89.70
2018-12-03T06:50:52.795Z,89.70
2018-12-03T06:53:21.308Z,89.60
2018-12-03T06:55:49.847Z,89.70
2018-12-03T06:58:18.480Z,89.60
2018-12-03T07:00:48.051Z,89.70
2018-12-03T07:03:16.630Z,89.70
2018-12-03T07:05:46.888Z,89.60
2018-12-03T07:08:15.512Z,89.60
2018-12-03T07:10:44.190Z,89.30
2018-12-03T07:13:16.352Z,89.20
2018-12-03T07:15:45.672Z,89.20
2018-12-03T07:18:14.308Z,89.20
2018-12-03T07:20:42.935Z,89.10
2018-12-03T07:23:11.467Z,89.70
2018-12-03T07:25:39.939Z,89.10
2018-12-03T07:28:08.442Z,89.00
2018-12-03T07:30:36.973Z,88.50
2018-12-03T07:33:05.573Z,88.70
2018-12-03T07:35:34.236Z,88.80
2018-12-03T07:38:02.774Z,88.70
2018-12-03T07:40:31.411Z,88.70
2018-12-03T07:43:00.027Z,88.90
2018-12-03T07:45:28.666Z,88.80
2018-12-03T07:47:57.461Z,88.70
2018-12-03T07:50:25.953Z,88.50
2018-12-03T07:52:54.591Z,88.30
2018-12-03T07:55:24.306Z,88.40
2018-12-03T07:58:24.427Z,88.60
2018-12-03T08:00:54.851Z,88.90
2018-12-03T08:03:23.327Z,89.00
2018-12-03T08:05:51.896Z,89.10
2018-12-03T08:08:20.529Z,89.10
2018-12-03T08:10:51.559Z,89.20
2018-12-03T08:13:20.367Z,89.00
2018-12-03T08:15:49.011Z,88.90
2018-12-03T08:18:20.054Z,88.70
2018-12-03T08:20:54.909Z,88.50
2018-12-03T08:23:27.014Z,88.50
2018-12-03T08:25:58.810Z,88.30
2018-12-03T08:28:27.359Z,88.30
2018-12-03T08:30:55.883Z,88.50
2018-12-03T08:33:24.555Z,88.30
2018-12-03T08:35:53.030Z,88.30
2018-12-03T08:38:21.664Z,87.90
2018-12-03T08:40:50.203Z,88.70
2018-12-03T08:43:18.830Z,88.00
2018-12-03T08:45:47.308Z,87.60
2018-12-03T08:48:15.847Z,87.40
2018-12-03T08:50:46.755Z,87.70
2018-12-03T08:53:15.247Z,87.70
2018-12-03T08:55:43.869Z,87.70
2018-12-03T08:58:14.783Z,87.80
2018-12-03T09:00:44.797Z,87.20
2018-12-03T09:03:22.357Z,86.90
2018-12-03T09:05:51.168Z,86.20
2018-12-03T09:08:19.922Z,85.60
2018-12-03T09:10:48.492Z,84.00
2018-12-03T09:13:24.151Z,82.00
2018-12-03T09:15:55.420Z,80.70
2018-12-03T09:18:24.239Z,80.60
2018-12-03T09:20:52.861Z,80.40
2018-12-03T09:23:21.271Z,78.90
2018-12-03T09:25:49.955Z,80.30
2018-12-03T09:28:18.640Z,81.30
2018-12-03T09:30:47.138Z,80.80
2018-12-03T09:33:15.612Z,79.90
2018-12-03T09:35:44.185Z,79.20
2018-12-03T09:38:12.763Z,80.00
2018-12-03T09:40:41.368Z,80.10
2018-12-03T09:43:09.917Z,80.40
2018-12-03T09:45:38.574Z,80.60
2018-12-03T09:48:07.318Z,80.40
2018-12-03T09:50:35.842Z,79.60
2018-12-03T09:53:04.530Z,79.10
2018-12-03T09:55:33.809Z,78.70
2018-12-03T09:58:22.508Z,77.10
2018-12-03T10:00:51.282Z,77.70
2018-12-03T10:03:27.576Z,78.60
2018-12-03T10:06:00.148Z,79.40
2018-12-03T10:08:30.258Z,78.70
2018-12-03T10:11:00.938Z,79.00
2018-12-03T10:13:30.663Z,79.10
2018-12-03T10:15:59.334Z,78.80
2018-12-03T10:18:27.837Z,79.50
2018-12-03T10:20:58.805Z,79.10
2018-12-03T10:23:27.568Z,78.30
2018-12-03T10:25:57.840Z,78.20
2018-12-03T10:28:26.811Z,78.10
2018-12-03T10:30:56.569Z,77.50
2018-12-03T10:33:33.478Z,78.50
2018-12-03T10:36:05.154Z,79.50
2018-12-03T10:38:35.495Z,80.20
2018-12-03T10:41:07.415Z,80.90
2018-12-03T10:43:35.904Z,80.50
2018-12-03T10:46:04.560Z,80.20
2018-12-03T10:48:33.116Z,79.50
2018-12-03T10:51:01.808Z,79.60
2018-12-03T10:53:31.613Z,80.60
2018-12-03T10:56:00.183Z,80.30
2018-12-03T10:58:34.014Z,80.80
2018-12-03T11:01:11.444Z,81.00
2018-12-03T11:04:42.647Z,80.70
2018-12-03T11:07:13.539Z,81.10
2018-12-03T11:09:42.077Z,80.70
2018-12-03T11:12:10.788Z,80.00
2018-12-03T11:14:39.482Z,81.70
2018-12-03T11:17:08.519Z,81.10
2018-12-03T11:19:37.042Z,81.60
2018-12-03T11:22:06.365Z,82.20
2018-12-03T11:24:34.964Z,82.30
2018-12-03T11:27:03.743Z,82.70
2018-12-03T11:29:39.295Z,82.30
2018-12-03T11:32:07.916Z,82.60
2018-12-03T11:34:36.448Z,81.50
2018-12-03T11:37:05.318Z,81.10
2018-12-03T11:39:42.036Z,81.20
2018-12-03T11:42:10.763Z,81.10
2018-12-03T11:44:39.389Z,80.80
2018-12-03T11:47:08.007Z,80.60
2018-12-03T11:49:36.584Z,81.50
2018-12-03T11:52:05.401Z,81.30
2018-12-03T11:54:34.239Z,81.40
2018-12-03T11:57:02.964Z,82.10
2018-12-03T11:59:31.456Z,82.10
2018-12-03T12:01:59.927Z,82.20
2018-12-03T12:04:28.494Z,82.00
2018-12-03T12:06:57.017Z,82.30
2018-12-03T12:09:25.800Z,82.20
2018-12-03T12:11:54.395Z,82.20
2018-12-03T12:14:24.884Z,82.40
2018-12-03T12:16:53.584Z,82.90
2018-12-03T12:19:22.147Z,83.10
2018-12-03T12:21:50.860Z,82.90
2018-12-03T12:24:19.421Z,82.80
2018-12-03T12:26:48.768Z,82.20
2018-12-03T12:29:17.238Z,81.60
2018-12-03T12:31:45.974Z,81.20
2018-12-03T12:34:14.494Z,81.40
2018-12-03T12:36:43.085Z,81.60
2018-12-03T12:39:11.917Z,81.20
2018-12-03T12:41:41.471Z,81.80
2018-12-03T12:44:11.338Z,82.10
2018-12-03T12:46:46.220Z,82.00
2018-12-03T12:49:14.874Z,81.80
2018-12-03T12:51:43.497Z,81.70
2018-12-03T12:54:12.143Z,81.70
2018-12-03T12:56:40.759Z,81.70
2018-12-03T12:59:09.385Z,81.00
2018-12-03T13:01:38.169Z,80.50
2018-12-03T13:04:07.606Z,80.10
2018-12-03T13:06:36.215Z,80.00
2018-12-03T13:09:08.398Z,79.30
2018-12-03T13:11:37.237Z,79.10
2018-12-03T13:14:07.157Z,77.90
2018-12-03T13:16:35.650Z,77.50
2018-12-03T13:19:04.308Z,76.60
2018-12-03T13:21:32.900Z,76.50
2018-12-03T13:24:01.423Z,76.70
2018-12-03T13:26:30.867Z,76.90
2018-12-03T13:28:59.351Z,77.00
2018-12-03T13:31:28.026Z,77.40
2018-12-03T13:33:56.539Z,77.60
2018-12-03T13:36:25.105Z,78.30
2018-12-03T13:38:54.039Z,77.90
2018-12-03T13:41:22.671Z,78.30
2018-12-03T13:43:51.246Z,78.60
2018-12-03T13:46:19.827Z,78.40
2018-12-03T13:48:48.441Z,78.60
2018-12-03T13:51:17.051Z,78.90
2018-12-03T13:53:45.600Z,78.10
2018-12-03T13:56:14.047Z,78.00
2018-12-03T13:58:42.655Z,77.80
2018-12-03T14:01:11.151Z,77.70
2018-12-03T14:03:41.173Z,77.50
2018-12-03T14:06:26.917Z,77.40
2018-12-03T14:11:09.980Z,78.00
2018-12-03T14:15:52.268Z,77.80
2018-12-03T14:18:25.147Z,78.10
2018-12-03T14:20:56.267Z,78.20
2018-12-03T14:23:57.412Z,78.30
2018-12-03T14:26:25.938Z,78.10
2018-12-03T14:28:54.406Z,77.90
2018-12-03T14:31:22.885Z,78.10
2018-12-03T14:33:51.987Z,78.70
2018-12-03T14:36:20.509Z,78.70
2018-12-03T14:38:49.086Z,79.10
2018-12-03T14:41:17.754Z,78.80
2018-12-03T14:43:46.215Z,78.90
2018-12-03T14:46:14.713Z,78.90
2018-12-03T14:48:43.235Z,78.90
2018-12-03T14:51:11.871Z,79.00
2018-12-03T14:53:40.343Z,79.30
2018-12-03T14:56:08.832Z,79.60
2018-12-03T14:58:37.319Z,80.00
2018-12-03T15:01:05.966Z,79.60
2018-12-03T15:03:34.472Z,79.70
2018-12-03T15:06:02.951Z,79.80
2018-12-03T15:08:31.414Z,79.90
2018-12-03T15:10:59.923Z,80.20
2018-12-03T15:13:28.564Z,80.40
2018-12-03T15:15:57.030Z,80.50
2018-12-03T15:18:25.680Z,80.70
2018-12-03T15:20:55.708Z,80.90
2018-12-03T15:23:24.148Z,81.20
2018-12-03T15:25:53.299Z,81.30
2018-12-03T15:28:22.012Z,81.60
2018-12-03T15:30:50.551Z,81.80
2018-12-03T15:33:19.148Z,81.70
2018-12-03T15:35:47.721Z,81.70
2018-12-03T15:38:16.232Z,82.00
2018-12-03T15:40:45.012Z,82.00
2018-12-03T15:43:13.540Z,81.80
2018-12-03T15:45:42.023Z,81.80
2018-12-03T15:48:10.743Z,81.60
2018-12-03T15:50:39.456Z,81.40
2018-12-03T15:53:08.294Z,81.40
2018-12-03T15:55:37.163Z,81.40
2018-12-03T15:58:06.139Z,81.20
2018-12-03T16:00:35.072Z,81.30
2018-12-03T16:03:04.071Z,81.20
2018-12-03T16:05:33.321Z,81.20
2018-12-03T16:08:02.295Z,81.40
2018-12-03T16:10:32.128Z,81.40
2018-12-03T16:13:01.027Z,81.40
2018-12-03T16:15:30.054Z,81.60
2018-12-03T16:17:59.236Z,81.70
2018-12-03T16:20:28.149Z,82.10
2018-12-03T16:22:57.100Z,82.00
2018-12-03T16:25:26.071Z,81.90
2018-12-03T16:27:55.090Z,82.00
2018-12-03T16:30:24.728Z,82.00
2018-12-03T16:32:54.118Z,82.20
2018-12-03T16:35:23.363Z,82.20
2018-12-03T16:37:52.554Z,83.30
2018-12-03T16:40:21.829Z,82.90
2018-12-03T16:42:51.040Z,83.10
2018-12-03T16:45:20.612Z,82.90
2018-12-03T16:47:50.156Z,82.90
2018-12-03T16:50:19.714Z,82.90
2018-12-03T16:52:48.925Z,82.90
2018-12-03T16:55:18.259Z,83.00
2018-12-03T16:57:47.992Z,82.90
2018-12-03T17:00:17.520Z,83.00
2018-12-03T17:02:47.023Z,83.00
2018-12-03T17:05:16.318Z,83.00
2018-12-03T17:07:45.782Z,83.10
2018-12-03T17:10:18.042Z,83.10
2018-12-03T17:12:49.020Z,83.50
2018-12-03T17:15:18.278Z,83.50
2018-12-03T17:17:47.644Z,83.50
2018-12-03T17:20:20.200Z,83.70
2018-12-03T17:24:06.870Z,83.80
2018-12-03T17:26:36.127Z,83.90
2018-12-03T17:29:05.360Z,83.80
2018-12-03T17:31:34.860Z,83.90
2018-12-03T17:34:04.440Z,84.10
2018-12-03T17:36:33.674Z,84.10
2018-12-03T17:39:04.435Z,84.20
2018-12-03T17:41:34.082Z,84.10
2018-12-03T17:44:04.134Z,84.00
2018-12-03T17:46:33.825Z,83.90
2018-12-03T17:49:03.820Z,83.40
2018-12-03T17:51:33.088Z,83.70
2018-12-03T17:54:02.824Z,83.70
2018-12-03T17:56:32.508Z,83.70
2018-12-03T17:59:01.787Z,83.60
2018-12-03T18:01:34.373Z,83.60
2018-12-03T18:04:03.635Z,83.70
2018-12-03T18:06:34.913Z,83.60
2018-12-03T18:09:05.484Z,83.60
2018-12-03T18:11:34.776Z,83.70
2018-12-03T18:14:04.411Z,83.70
2018-12-03T18:16:33.713Z,83.70
2018-12-03T18:19:03.156Z,83.70
2018-12-03T18:21:32.442Z,83.80
2018-12-03T18:24:02.751Z,83.90
2018-12-03T18:26:32.204Z,83.90
2018-12-03T18:29:01.704Z,83.70
2018-12-03T18:31:31.137Z,83.80
2018-12-03T18:34:00.792Z,84.00
2018-12-03T18:36:30.261Z,84.20
2018-12-03T18:38:59.522Z,84.30
2018-12-03T18:41:29.121Z,84.40
2018-12-03T18:43:58.476Z,84.70
2018-12-03T18:46:27.748Z,84.80
2018-12-03T18:49:01.018Z,85.00
2018-12-03T18:51:30.258Z,85.80
2018-12-03T18:53:59.581Z,85.20
2018-12-03T18:56:29.108Z,85.10
2018-12-03T18:59:04.118Z,85.40
2018-12-03T19:01:33.451Z,85.40
2018-12-03T19:04:02.723Z,85.40
2018-12-03T19:06:32.610Z,85.40
2018-12-03T19:09:02.069Z,85.40
2018-12-03T19:11:31.352Z,85.30
2018-12-03T19:14:01.234Z,85.30
2018-12-03T19:16:30.807Z,85.40
2018-12-03T19:19:00.053Z,85.30
2018-12-03T19:21:29.450Z,85.30
2018-12-03T19:23:58.771Z,85.60
2018-12-03T19:26:28.015Z,85.80
2018-12-03T19:28:57.308Z,85.80
2018-12-03T19:31:26.741Z,85.80
2018-12-03T19:33:55.988Z,85.70
2018-12-03T19:36:25.270Z,85.80
2018-12-03T19:38:54.720Z,85.80
2018-12-03T19:41:24.002Z,85.80
2018-12-03T19:43:53.649Z,85.80
2018-12-03T19:46:23.274Z,85.70
2018-12-03T19:48:52.807Z,85.80
2018-12-03T19:51:22.858Z,85.90
2018-12-03T19:53:56.685Z,85.80
2018-12-03T19:56:27.467Z,85.80
2018-12-03T19:58:57.867Z,85.70
2018-12-03T20:01:27.095Z,85.70
2018-12-03T20:03:56.461Z,85.70
2018-12-03T20:06:26.419Z,85.60
2018-12-03T20:08:56.057Z,85.60
2018-12-03T20:11:25.699Z,85.50
2018-12-03T20:13:54.984Z,85.50
2018-12-03T20:16:25.492Z,85.70
2018-12-03T20:18:54.797Z,85.80
2018-12-03T20:21:26.612Z,85.80
2018-12-03T20:24:06.643Z,86.10
2018-12-03T20:26:42.112Z,86.00
2018-12-03T20:29:22.033Z,86.00
2018-12-03T20:32:04.332Z,85.80
2018-12-03T20:34:44.777Z,85.80
2018-12-03T20:37:29.979Z,86.50
2018-12-03T20:40:22.468Z,85.80
2018-12-03T20:42:56.959Z,85.70
2018-12-03T20:47:33.991Z,85.70
2018-12-03T20:50:10.684Z,85.70
2018-12-03T20:52:40.031Z,85.40
2018-12-03T20:55:15.380Z,85.70
2018-12-03T20:57:44.687Z,85.60
2018-12-03T21:00:14.003Z,85.60
2018-12-03T21:02:43.293Z,85.60
2018-12-03T21:05:12.735Z,85.50
2018-12-03T21:07:41.977Z,85.80
2018-12-03T21:10:11.305Z,86.00
2018-12-03T21:12:40.566Z,86.20
2018-12-03T21:15:10.058Z,86.40
2018-12-03T21:17:39.424Z,86.40
2018-12-03T21:20:14.992Z,86.70
2018-12-03T21:22:44.252Z,87.10
2018-12-03T21:25:13.567Z,87.30
2018-12-03T21:27:42.852Z,87.20
2018-12-03T21:30:15.614Z,87.20
2018-12-03T21:32:46.585Z,87.00
2018-12-03T21:35:16.316Z,87.00
2018-12-03T21:37:46.035Z,86.80
2018-12-03T21:40:15.627Z,86.30
2018-12-03T21:42:44.908Z,85.60
2018-12-03T21:45:14.362Z,85.80
2018-12-03T21:47:44.118Z,86.20
2018-12-03T21:50:13.441Z,86.60
2018-12-03T21:52:42.656Z,86.80
2018-12-03T21:55:13.150Z,86.90
2018-12-03T21:57:42.962Z,86.90
2018-12-03T22:00:16.233Z,86.90
2018-12-03T22:02:45.627Z,86.60
2018-12-03T22:05:15.819Z,87.50
2018-12-03T22:07:45.125Z,86.70
2018-12-03T22:10:14.345Z,86.80
2018-12-03T22:12:43.510Z,86.80
2018-12-03T22:15:12.705Z,86.90
2018-12-03T22:17:41.791Z,87.70
2018-12-03T22:20:12.081Z,87.00
2018-12-03T22:22:41.483Z,86.90
2018-12-03T22:25:09.909Z,86.80
2018-12-03T22:27:38.820Z,86.70
2018-12-03T22:30:09.608Z,86.70
2018-12-03T22:32:41.279Z,86.80
2018-12-03T22:35:09.893Z,86.90
2018-12-03T22:37:38.440Z,87.00
2018-12-03T22:40:10.417Z,87.20
2018-12-03T22:42:38.868Z,87.90
2018-12-03T22:45:07.706Z,87.50
2018-12-03T22:47:36.259Z,87.50
2018-12-03T22:50:05.450Z,87.60
2018-12-03T22:52:33.920Z,87.50
2018-12-03T22:55:02.542Z,87.40
2018-12-03T22:57:31.167Z,87.50
2018-12-03T22:59:59.633Z,87.70
2018-12-03T23:02:28.258Z,87.90
2018-12-03T23:04:56.718Z,88.30
2018-12-03T23:07:25.301Z,89.10
2018-12-03T23:09:53.780Z,89.30
2018-12-03T23:12:22.252Z,89.30
2018-12-03T23:14:50.864Z,89.50
2018-12-03T23:17:19.527Z,89.30
2018-12-03T23:19:48.151Z,89.20
2018-12-03T23:22:16.585Z,89.20
2018-12-03T23:24:45.097Z,89.30
2018-12-03T23:27:13.556Z,89.60
2018-12-03T23:29:42.132Z,89.70
2018-12-03T23:32:10.845Z,90.00
2018-12-03T23:34:39.442Z,90.00
2018-12-03T23:37:07.891Z,90.10
2018-12-03T23:39:36.379Z,90.20
2018-12-03T23:42:04.841Z,90.10
2018-12-03T23:44:33.326Z,90.10
2018-12-03T23:47:01.827Z,90.00
2018-12-03T23:49:30.254Z,89.80
2018-12-03T23:51:58.910Z,89.70
2018-12-03T23:54:27.425Z,89.40
2018-12-03T23:56:55.860Z,89.30
2018-12-03T23:59:24.348Z,89.20
